sensor_id;sensor_type;location;lat;lon;timestamp;P1;durP1;ratioP1;P2;durP2;ratioP2
44862;SDS011;30597;49.628;10.850;2023-02-28T00:00:23;13.40;;;9.50;;
44862;SDS011;30597;49.628;10.850;2023-02-28T00:02:49;9.73;;;8.47;;
44862;SDS011;30597;49.628;10.850;2023-02-28T00:05:16;12.33;;;9.50;;
44862;SDS011;30597;49.628;10.850;2023-02-28T00:07:43;10.43;;;8.40;;
44862;SDS011;30597;49.628;10.850;2023-02-28T00:10:10;11.10;;;8.70;;
44862;SDS011;30597;49.628;10.850;2023-02-28T00:12:38;9.00;;;8.03;;
44862;SDS011;30597;49.628;10.850;2023-02-28T00:15:09;9.43;;;8.40;;
44862;SDS011;30597;49.628;10.850;2023-02-28T00:17:35;10.67;;;8.17;;
44862;SDS011;30597;49.628;10.850;2023-02-28T00:20:01;8.80;;;7.47;;
44862;SDS011;30597;49.628;10.850;2023-02-28T00:22:29;11.30;;;8.63;;
44862;SDS011;30597;49.628;10.850;2023-02-28T00:24:55;8.60;;;7.70;;
44862;SDS011;30597;49.628;10.850;2023-02-28T00:27:20;11.67;;;8.20;;
44862;SDS011;30597;49.628;10.850;2023-02-28T00:29:46;8.83;;;7.30;;
44862;SDS011;30597;49.628;10.850;2023-02-28T00:32:12;10.03;;;8.17;;
44862;SDS011;30597;49.628;10.850;2023-02-28T00:34:38;8.60;;;7.70;;
44862;SDS011;30597;49.628;10.850;2023-02-28T00:37:05;8.40;;;7.60;;
44862;SDS011;30597;49.628;10.850;2023-02-28T00:39:32;8.57;;;7.50;;
44862;SDS011;30597;49.628;10.850;2023-02-28T00:41:59;9.43;;;7.63;;
44862;SDS011;30597;49.628;10.850;2023-02-28T00:44:25;12.30;;;7.80;;
44862;SDS011;30597;49.628;10.850;2023-02-28T00:46:50;8.60;;;7.70;;
44862;SDS011;30597;49.628;10.850;2023-02-28T00:49:16;7.97;;;7.27;;
44862;SDS011;30597;49.628;10.850;2023-02-28T00:51:42;7.67;;;6.87;;
44862;SDS011;30597;49.628;10.850;2023-02-28T00:54:08;7.50;;;6.80;;
44862;SDS011;30597;49.628;10.850;2023-02-28T00:56:33;8.17;;;6.87;;
44862;SDS011;30597;49.628;10.850;2023-02-28T00:58:59;8.20;;;7.40;;
44862;SDS011;30597;49.628;10.850;2023-02-28T01:01:24;7.33;;;6.53;;
44862;SDS011;30597;49.628;10.850;2023-02-28T01:03:50;8.37;;;6.70;;
44862;SDS011;30597;49.628;10.850;2023-02-28T01:06:15;7.80;;;7.00;;
44862;SDS011;30597;49.628;10.850;2023-02-28T01:08:41;7.50;;;6.73;;
44862;SDS011;30597;49.628;10.850;2023-02-28T01:11:10;7.13;;;6.43;;
44862;SDS011;30597;49.628;10.850;2023-02-28T01:13:37;9.03;;;7.07;;
44862;SDS011;30597;49.628;10.850;2023-02-28T01:16:03;7.50;;;6.37;;
44862;SDS011;30597;49.628;10.850;2023-02-28T01:18:29;7.87;;;6.70;;
44862;SDS011;30597;49.628;10.850;2023-02-28T01:20:55;6.60;;;5.90;;
44862;SDS011;30597;49.628;10.850;2023-02-28T01:23:21;7.47;;;5.70;;
44862;SDS011;30597;49.628;10.850;2023-02-28T01:25:49;8.40;;;6.67;;
44862;SDS011;30597;49.628;10.850;2023-02-28T01:28:15;7.50;;;6.47;;
44862;SDS011;30597;49.628;10.850;2023-02-28T01:30:41;8.63;;;6.73;;
44862;SDS011;30597;49.628;10.850;2023-02-28T01:33:06;8.50;;;6.50;;
44862;SDS011;30597;49.628;10.850;2023-02-28T01:35:35;6.00;;;5.37;;
44862;SDS011;30597;49.628;10.850;2023-02-28T01:38:01;7.07;;;6.37;;
44862;SDS011;30597;49.628;10.850;2023-02-28T01:40:27;6.83;;;6.10;;
44862;SDS011;30597;49.628;10.850;2023-02-28T01:42:53;6.00;;;5.40;;
44862;SDS011;30597;49.628;10.850;2023-02-28T01:47:50;6.97;;;6.33;;
44862;SDS011;30597;49.628;10.850;2023-02-28T01:50:19;6.03;;;5.43;;
44862;SDS011;30597;49.628;10.850;2023-02-28T01:52:47;7.07;;;5.77;;
44862;SDS011;30597;49.628;10.850;2023-02-28T01:55:14;6.10;;;5.30;;
44862;SDS011;30597;49.628;10.850;2023-02-28T01:57:43;6.23;;;5.40;;
44862;SDS011;30597;49.628;10.850;2023-02-28T02:00:14;6.47;;;5.60;;
44862;SDS011;30597;49.628;10.850;2023-02-28T02:02:42;5.70;;;4.83;;
44862;SDS011;30597;49.628;10.850;2023-02-28T02:05:12;6.60;;;6.00;;
44862;SDS011;30597;49.628;10.850;2023-02-28T02:07:42;5.67;;;5.17;;
44862;SDS011;30597;49.628;10.850;2023-02-28T02:10:11;7.77;;;6.07;;
44862;SDS011;30597;49.628;10.850;2023-02-28T02:12:47;6.80;;;5.47;;
44862;SDS011;30597;49.628;10.850;2023-02-28T02:15:49;7.40;;;5.60;;
44862;SDS011;30597;49.628;10.850;2023-02-28T02:21:28;6.87;;;6.27;;
44862;SDS011;30597;49.628;10.850;2023-02-28T02:29:21;6.67;;;5.30;;
44862;SDS011;30597;49.628;10.850;2023-02-28T02:34:40;5.87;;;5.20;;
44862;SDS011;30597;49.628;10.850;2023-02-28T02:40:14;4.87;;;4.47;;
44862;SDS011;30597;49.628;10.850;2023-02-28T02:42:51;5.20;;;4.20;;
44862;SDS011;30597;49.628;10.850;2023-02-28T02:45:32;4.90;;;4.40;;
44862;SDS011;30597;49.628;10.850;2023-02-28T02:48:06;6.13;;;5.10;;
44862;SDS011;30597;49.628;10.850;2023-02-28T02:50:36;5.87;;;4.80;;
44862;SDS011;30597;49.628;10.850;2023-02-28T02:53:05;5.07;;;4.60;;
44862;SDS011;30597;49.628;10.850;2023-02-28T02:55:34;5.87;;;4.60;;
44862;SDS011;30597;49.628;10.850;2023-02-28T02:58:07;6.00;;;5.10;;
44862;SDS011;30597;49.628;10.850;2023-02-28T03:00:37;4.93;;;4.43;;
44862;SDS011;30597;49.628;10.850;2023-02-28T03:03:18;4.67;;;4.13;;
44862;SDS011;30597;49.628;10.850;2023-02-28T03:05:54;5.13;;;4.63;;
44862;SDS011;30597;49.628;10.850;2023-02-28T03:08:24;5.83;;;4.40;;
44862;SDS011;30597;49.628;10.850;2023-02-28T03:10:57;5.83;;;5.17;;
44862;SDS011;30597;49.628;10.850;2023-02-28T03:13:37;6.30;;;4.23;;
44862;SDS011;30597;49.628;10.850;2023-02-28T03:19:04;5.47;;;4.27;;
44862;SDS011;30597;49.628;10.850;2023-02-28T03:24:34;4.07;;;3.67;;
44862;SDS011;30597;49.628;10.850;2023-02-28T03:27:12;7.23;;;5.00;;
44862;SDS011;30597;49.628;10.850;2023-02-28T03:29:46;5.57;;;4.40;;
44862;SDS011;30597;49.628;10.850;2023-02-28T03:32:26;4.37;;;3.83;;
44862;SDS011;30597;49.628;10.850;2023-02-28T03:34:58;4.47;;;4.07;;
44862;SDS011;30597;49.628;10.850;2023-02-28T03:37:33;5.13;;;4.63;;
44862;SDS011;30597;49.628;10.850;2023-02-28T03:40:21;4.63;;;4.13;;
44862;SDS011;30597;49.628;10.850;2023-02-28T03:42:51;5.67;;;4.17;;
44862;SDS011;30597;49.628;10.850;2023-02-28T03:45:26;4.40;;;4.00;;
44862;SDS011;30597;49.628;10.850;2023-02-28T03:47:58;3.77;;;3.47;;
44862;SDS011;30597;49.628;10.850;2023-02-28T03:50:34;4.50;;;4.10;;
44862;SDS011;30597;49.628;10.850;2023-02-28T03:55:42;3.83;;;3.53;;
44862;SDS011;30597;49.628;10.850;2023-02-28T03:58:20;3.50;;;3.20;;
44862;SDS011;30597;49.628;10.850;2023-02-28T04:01:09;3.70;;;3.40;;
44862;SDS011;30597;49.628;10.850;2023-02-28T04:03:44;4.30;;;3.77;;
44862;SDS011;30597;49.628;10.850;2023-02-28T04:06:15;4.20;;;3.80;;
44862;SDS011;30597;49.628;10.850;2023-02-28T04:08:43;4.43;;;4.03;;
44862;SDS011;30597;49.628;10.850;2023-02-28T04:13:57;5.03;;;3.90;;
44862;SDS011;30597;49.628;10.850;2023-02-28T04:16:22;4.67;;;4.20;;
44862;SDS011;30597;49.628;10.850;2023-02-28T04:18:48;5.17;;;3.77;;
44862;SDS011;30597;49.628;10.850;2023-02-28T04:21:13;3.97;;;3.40;;
44862;SDS011;30597;49.628;10.850;2023-02-28T04:23:39;4.03;;;3.30;;
44862;SDS011;30597;49.628;10.850;2023-02-28T04:26:05;4.87;;;3.43;;
44862;SDS011;30597;49.628;10.850;2023-02-28T04:28:31;3.27;;;2.97;;
44862;SDS011;30597;49.628;10.850;2023-02-28T04:31:01;4.20;;;3.53;;
44862;SDS011;30597;49.628;10.850;2023-02-28T04:33:28;4.60;;;3.30;;
44862;SDS011;30597;49.628;10.850;2023-02-28T04:36:02;3.83;;;3.30;;
44862;SDS011;30597;49.628;10.850;2023-02-28T04:38:30;5.17;;;3.30;;
44862;SDS011;30597;49.628;10.850;2023-02-28T04:40:58;3.90;;;3.03;;
44862;SDS011;30597;49.628;10.850;2023-02-28T04:43:25;4.60;;;3.50;;
44862;SDS011;30597;49.628;10.850;2023-02-28T04:45:53;2.80;;;2.57;;
44862;SDS011;30597;49.628;10.850;2023-02-28T04:48:21;3.53;;;3.23;;
44862;SDS011;30597;49.628;10.850;2023-02-28T04:50:52;4.20;;;3.03;;
44862;SDS011;30597;49.628;10.850;2023-02-28T04:53:17;4.47;;;3.17;;
44862;SDS011;30597;49.628;10.850;2023-02-28T04:55:44;3.50;;;2.67;;
44862;SDS011;30597;49.628;10.850;2023-02-28T04:58:10;3.57;;;3.23;;
44862;SDS011;30597;49.628;10.850;2023-02-28T05:00:37;3.70;;;3.40;;
44862;SDS011;30597;49.628;10.850;2023-02-28T05:03:02;3.80;;;3.50;;
44862;SDS011;30597;49.628;10.850;2023-02-28T05:05:28;3.37;;;3.07;;
44862;SDS011;30597;49.628;10.850;2023-02-28T05:07:54;3.57;;;3.00;;
44862;SDS011;30597;49.628;10.850;2023-02-28T05:10:20;3.53;;;2.60;;
44862;SDS011;30597;49.628;10.850;2023-02-28T05:12:46;4.17;;;3.77;;
44862;SDS011;30597;49.628;10.850;2023-02-28T05:15:13;3.17;;;2.87;;
44862;SDS011;30597;49.628;10.850;2023-02-28T05:17:39;3.40;;;3.10;;
44862;SDS011;30597;49.628;10.850;2023-02-28T05:20:05;3.20;;;2.87;;
44862;SDS011;30597;49.628;10.850;2023-02-28T05:22:33;3.63;;;3.20;;
44862;SDS011;30597;49.628;10.850;2023-02-28T05:24:59;3.50;;;2.93;;
44862;SDS011;30597;49.628;10.850;2023-02-28T05:27:24;3.43;;;2.80;;
44862;SDS011;30597;49.628;10.850;2023-02-28T05:29:50;3.10;;;2.67;;
44862;SDS011;30597;49.628;10.850;2023-02-28T05:32:15;3.43;;;3.13;;
44862;SDS011;30597;49.628;10.850;2023-02-28T05:34:41;3.00;;;2.70;;
44862;SDS011;30597;49.628;10.850;2023-02-28T05:37:13;2.70;;;2.50;;
44862;SDS011;30597;49.628;10.850;2023-02-28T05:39:40;3.00;;;2.70;;
44862;SDS011;30597;49.628;10.850;2023-02-28T05:42:06;3.00;;;2.80;;
44862;SDS011;30597;49.628;10.850;2023-02-28T05:44:32;4.13;;;2.70;;
44862;SDS011;30597;49.628;10.850;2023-02-28T05:46:58;3.20;;;2.60;;
44862;SDS011;30597;49.628;10.850;2023-02-28T05:49:24;2.47;;;2.27;;
44862;SDS011;30597;49.628;10.850;2023-02-28T05:51:49;3.13;;;2.73;;
44862;SDS011;30597;49.628;10.850;2023-02-28T05:54:15;2.60;;;2.40;;
44862;SDS011;30597;49.628;10.850;2023-02-28T05:56:40;2.33;;;2.13;;
44862;SDS011;30597;49.628;10.850;2023-02-28T05:59:08;3.40;;;2.60;;
44862;SDS011;30597;49.628;10.850;2023-02-28T06:01:35;2.80;;;2.60;;
44862;SDS011;30597;49.628;10.850;2023-02-28T06:04:03;2.90;;;2.13;;
44862;SDS011;30597;49.628;10.850;2023-02-28T06:06:30;2.70;;;2.50;;
44862;SDS011;30597;49.628;10.850;2023-02-28T06:08:56;3.13;;;2.60;;
44862;SDS011;30597;49.628;10.850;2023-02-28T06:11:21;2.43;;;2.23;;
44862;SDS011;30597;49.628;10.850;2023-02-28T06:13:52;2.90;;;2.50;;
44862;SDS011;30597;49.628;10.850;2023-02-28T06:16:22;2.60;;;2.40;;
44862;SDS011;30597;49.628;10.850;2023-02-28T06:18:48;3.20;;;2.37;;
44862;SDS011;30597;49.628;10.850;2023-02-28T06:21:13;3.20;;;2.80;;
44862;SDS011;30597;49.628;10.850;2023-02-28T06:23:39;2.50;;;2.30;;
44862;SDS011;30597;49.628;10.850;2023-02-28T06:26:05;2.43;;;2.23;;
44862;SDS011;30597;49.628;10.850;2023-02-28T06:28:30;2.40;;;2.20;;
44862;SDS011;30597;49.628;10.850;2023-02-28T06:30:56;3.00;;;2.70;;
44862;SDS011;30597;49.628;10.850;2023-02-28T06:33:22;2.80;;;2.53;;
44862;SDS011;30597;49.628;10.850;2023-02-28T06:35:51;3.00;;;2.50;;
44862;SDS011;30597;49.628;10.850;2023-02-28T06:38:17;2.17;;;1.97;;
44862;SDS011;30597;49.628;10.850;2023-02-28T06:40:43;2.40;;;2.20;;
44862;SDS011;30597;49.628;10.850;2023-02-28T06:43:09;2.43;;;2.20;;
44862;SDS011;30597;49.628;10.850;2023-02-28T06:45:40;2.80;;;2.60;;
44862;SDS011;30597;49.628;10.850;2023-02-28T06:48:07;2.40;;;2.17;;
44862;SDS011;30597;49.628;10.850;2023-02-28T06:50:32;2.77;;;2.40;;
44862;SDS011;30597;49.628;10.850;2023-02-28T06:52:58;2.60;;;2.40;;
44862;SDS011;30597;49.628;10.850;2023-02-28T06:55:23;2.53;;;2.30;;
44862;SDS011;30597;49.628;10.850;2023-02-28T06:57:49;2.73;;;2.53;;
44862;SDS011;30597;49.628;10.850;2023-02-28T07:00:15;2.63;;;2.43;;
44862;SDS011;30597;49.628;10.850;2023-02-28T07:02:41;2.87;;;2.60;;
44862;SDS011;30597;49.628;10.850;2023-02-28T07:05:07;2.10;;;1.90;;
44862;SDS011;30597;49.628;10.850;2023-02-28T07:07:33;2.10;;;1.90;;
44862;SDS011;30597;49.628;10.850;2023-02-28T07:09:59;2.87;;;2.57;;
44862;SDS011;30597;49.628;10.850;2023-02-28T07:12:24;3.13;;;2.83;;
44862;SDS011;30597;49.628;10.850;2023-02-28T07:14:50;2.77;;;2.23;;
44862;SDS011;30597;49.628;10.850;2023-02-28T07:17:15;2.77;;;2.53;;
44862;SDS011;30597;49.628;10.850;2023-02-28T07:19:41;2.30;;;2.10;;
44862;SDS011;30597;49.628;10.850;2023-02-28T07:22:07;3.00;;;2.70;;
44862;SDS011;30597;49.628;10.850;2023-02-28T07:24:32;2.07;;;1.83;;
44862;SDS011;30597;49.628;10.850;2023-02-28T07:26:58;3.03;;;2.73;;
44862;SDS011;30597;49.628;10.850;2023-02-28T07:29:24;3.03;;;2.40;;
44862;SDS011;30597;49.628;10.850;2023-02-28T07:31:50;2.87;;;2.27;;
44862;SDS011;30597;49.628;10.850;2023-02-28T07:34:18;6.37;;;2.13;;
44862;SDS011;30597;49.628;10.850;2023-02-28T07:36:44;5.70;;;2.30;;
44862;SDS011;30597;49.628;10.850;2023-02-28T07:39:09;3.10;;;2.80;;
44862;SDS011;30597;49.628;10.850;2023-02-28T07:41:35;3.17;;;2.70;;
44862;SDS011;30597;49.628;10.850;2023-02-28T07:44:07;2.80;;;2.37;;
44862;SDS011;30597;49.628;10.850;2023-02-28T07:46:38;2.67;;;2.47;;
44862;SDS011;30597;49.628;10.850;2023-02-28T07:49:04;2.83;;;2.43;;
44862;SDS011;30597;49.628;10.850;2023-02-28T07:51:30;3.40;;;2.60;;
44862;SDS011;30597;49.628;10.850;2023-02-28T07:53:56;2.40;;;2.17;;
44862;SDS011;30597;49.628;10.850;2023-02-28T07:56:22;2.23;;;1.90;;
44862;SDS011;30597;49.628;10.850;2023-02-28T07:58:48;2.70;;;2.40;;
44862;SDS011;30597;49.628;10.850;2023-02-28T08:01:13;4.27;;;2.60;;
44862;SDS011;30597;49.628;10.850;2023-02-28T08:03:39;2.50;;;2.30;;
44862;SDS011;30597;49.628;10.850;2023-02-28T08:06:06;4.90;;;2.40;;
44862;SDS011;30597;49.628;10.850;2023-02-28T08:08:39;2.30;;;2.10;;
44862;SDS011;30597;49.628;10.850;2023-02-28T08:11:05;2.27;;;2.07;;
44862;SDS011;30597;49.628;10.850;2023-02-28T08:13:30;2.73;;;2.53;;
44862;SDS011;30597;49.628;10.850;2023-02-28T08:15:56;2.53;;;2.33;;
44862;SDS011;30597;49.628;10.850;2023-02-28T08:18:22;2.63;;;2.20;;
44862;SDS011;30597;49.628;10.850;2023-02-28T08:20:48;4.63;;;2.20;;
44862;SDS011;30597;49.628;10.850;2023-02-28T08:23:14;4.87;;;2.77;;
44862;SDS011;30597;49.628;10.850;2023-02-28T08:25:40;2.50;;;2.07;;
44862;SDS011;30597;49.628;10.850;2023-02-28T08:28:05;2.30;;;2.10;;
44862;SDS011;30597;49.628;10.850;2023-02-28T08:30:31;2.83;;;2.30;;
44862;SDS011;30597;49.628;10.850;2023-02-28T08:32:57;2.10;;;1.70;;
44862;SDS011;30597;49.628;10.850;2023-02-28T08:35:23;2.60;;;2.07;;
44862;SDS011;30597;49.628;10.850;2023-02-28T08:37:48;3.53;;;2.50;;
44862;SDS011;30597;49.628;10.850;2023-02-28T08:40:14;2.67;;;2.10;;
44862;SDS011;30597;49.628;10.850;2023-02-28T08:42:45;2.03;;;1.83;;
44862;SDS011;30597;49.628;10.850;2023-02-28T08:45:12;2.70;;;2.27;;
44862;SDS011;30597;49.628;10.850;2023-02-28T08:47:38;2.40;;;2.20;;
44862;SDS011;30597;49.628;10.850;2023-02-28T08:50:05;2.03;;;1.83;;
44862;SDS011;30597;49.628;10.850;2023-02-28T08:52:31;2.53;;;2.00;;
44862;SDS011;30597;49.628;10.850;2023-02-28T08:54:57;2.10;;;1.90;;
44862;SDS011;30597;49.628;10.850;2023-02-28T08:57:23;2.73;;;2.53;;
44862;SDS011;30597;49.628;10.850;2023-02-28T08:59:51;2.47;;;2.10;;
44862;SDS011;30597;49.628;10.850;2023-02-28T09:02:16;2.70;;;2.23;;
44862;SDS011;30597;49.628;10.850;2023-02-28T09:04:42;2.10;;;1.90;;
44862;SDS011;30597;49.628;10.850;2023-02-28T09:07:10;3.00;;;2.47;;
44862;SDS011;30597;49.628;10.850;2023-02-28T09:09:36;2.40;;;2.20;;
44862;SDS011;30597;49.628;10.850;2023-02-28T09:12:02;2.20;;;2.00;;
44862;SDS011;30597;49.628;10.850;2023-02-28T09:14:28;2.03;;;1.80;;
44862;SDS011;30597;49.628;10.850;2023-02-28T09:16:54;2.80;;;1.80;;
44862;SDS011;30597;49.628;10.850;2023-02-28T09:19:19;2.03;;;1.83;;
44862;SDS011;30597;49.628;10.850;2023-02-28T09:21:45;2.20;;;2.00;;
44862;SDS011;30597;49.628;10.850;2023-02-28T09:24:11;3.13;;;2.30;;
44862;SDS011;30597;49.628;10.850;2023-02-28T09:26:39;2.50;;;2.10;;
44862;SDS011;30597;49.628;10.850;2023-02-28T09:29:05;2.20;;;2.00;;
44862;SDS011;30597;49.628;10.850;2023-02-28T09:31:31;2.37;;;2.17;;
44862;SDS011;30597;49.628;10.850;2023-02-28T09:33:58;2.80;;;1.60;;
44862;SDS011;30597;49.628;10.850;2023-02-28T09:36:24;1.70;;;1.60;;
44862;SDS011;30597;49.628;10.850;2023-02-28T09:38:51;2.00;;;1.80;;
44862;SDS011;30597;49.628;10.850;2023-02-28T09:41:19;8.57;;;2.33;;
44862;SDS011;30597;49.628;10.850;2023-02-28T09:43:49;2.40;;;1.90;;
44862;SDS011;30597;49.628;10.850;2023-02-28T09:46:34;2.30;;;2.10;;
44862;SDS011;30597;49.628;10.850;2023-02-28T09:49:14;2.20;;;2.00;;
44862;SDS011;30597;49.628;10.850;2023-02-28T09:51:53;2.73;;;2.30;;
44862;SDS011;30597;49.628;10.850;2023-02-28T09:54:21;2.43;;;1.77;;
44862;SDS011;30597;49.628;10.850;2023-02-28T09:56:59;2.00;;;1.80;;
44862;SDS011;30597;49.628;10.850;2023-02-28T10:00:02;2.90;;;1.93;;
44862;SDS011;30597;49.628;10.850;2023-02-28T10:02:39;2.20;;;2.03;;
44862;SDS011;30597;49.628;10.850;2023-02-28T10:05:24;3.37;;;2.43;;
44862;SDS011;30597;49.628;10.850;2023-02-28T10:16:23;2.70;;;1.63;;
44862;SDS011;30597;49.628;10.850;2023-02-28T10:18:57;2.20;;;1.83;;
44862;SDS011;30597;49.628;10.850;2023-02-28T10:21:41;2.00;;;1.80;;
44862;SDS011;30597;49.628;10.850;2023-02-28T10:24:37;2.20;;;2.00;;
44862;SDS011;30597;49.628;10.850;2023-02-28T10:27:14;2.10;;;1.60;;
44862;SDS011;30597;49.628;10.850;2023-02-28T10:29:45;2.20;;;2.00;;
44862;SDS011;30597;49.628;10.850;2023-02-28T10:32:16;2.30;;;2.10;;
44862;SDS011;30597;49.628;10.850;2023-02-28T10:34:49;2.13;;;1.80;;
44862;SDS011;30597;49.628;10.850;2023-02-28T10:37:22;2.37;;;1.80;;
44862;SDS011;30597;49.628;10.850;2023-02-28T10:39:47;2.03;;;1.83;;
44862;SDS011;30597;49.628;10.850;2023-02-28T10:42:26;2.40;;;2.10;;
44862;SDS011;30597;49.628;10.850;2023-02-28T10:47:37;2.17;;;1.80;;
44862;SDS011;30597;49.628;10.850;2023-02-28T10:51:05;2.53;;;2.33;;
44862;SDS011;30597;49.628;10.850;2023-02-28T11:04:04;2.13;;;1.93;;
44862;SDS011;30597;49.628;10.850;2023-02-28T11:07:18;2.63;;;1.80;;
44862;SDS011;30597;49.628;10.850;2023-02-28T11:09:45;2.00;;;1.53;;
44862;SDS011;30597;49.628;10.850;2023-02-28T11:12:31;6.20;;;1.83;;
44862;SDS011;30597;49.628;10.850;2023-02-28T11:15:03;2.90;;;2.37;;
44862;SDS011;30597;49.628;10.850;2023-02-28T11:17:31;2.10;;;1.90;;
44862;SDS011;30597;49.628;10.850;2023-02-28T11:19:58;2.60;;;2.10;;
44862;SDS011;30597;49.628;10.850;2023-02-28T11:22:29;1.93;;;1.73;;
44862;SDS011;30597;49.628;10.850;2023-02-28T11:24:58;2.33;;;1.93;;
44862;SDS011;30597;49.628;10.850;2023-02-28T11:29:55;2.00;;;1.77;;
44862;SDS011;30597;49.628;10.850;2023-02-28T11:32:25;2.03;;;1.87;;
44862;SDS011;30597;49.628;10.850;2023-02-28T11:35:00;2.27;;;1.50;;
44862;SDS011;30597;49.628;10.850;2023-02-28T11:37:36;2.57;;;2.37;;
44862;SDS011;30597;49.628;10.850;2023-02-28T11:40:05;3.23;;;2.10;;
44862;SDS011;30597;49.628;10.850;2023-02-28T11:42:50;2.87;;;2.30;;
44862;SDS011;30597;49.628;10.850;2023-02-28T11:45:35;6.00;;;3.70;;
44862;SDS011;30597;49.628;10.850;2023-02-28T11:50:53;2.63;;;2.03;;
44862;SDS011;30597;49.628;10.850;2023-02-28T11:56:10;2.27;;;2.10;;
44862;SDS011;30597;49.628;10.850;2023-02-28T12:04:42;2.27;;;2.07;;
44862;SDS011;30597;49.628;10.850;2023-02-28T12:08:11;3.80;;;2.60;;
44862;SDS011;30597;49.628;10.850;2023-02-28T12:10:22;2.90;;;2.60;;
44862;SDS011;30597;49.628;10.850;2023-02-28T12:12:55;3.00;;;2.10;;
44862;SDS011;30597;49.628;10.850;2023-02-28T12:15:50;3.60;;;2.80;;
44862;SDS011;30597;49.628;10.850;2023-02-28T12:21:56;5.20;;;2.50;;
44862;SDS011;30597;49.628;10.850;2023-02-28T12:27:25;2.63;;;2.10;;
44862;SDS011;30597;49.628;10.850;2023-02-28T12:29:59;2.40;;;2.20;;
44862;SDS011;30597;49.628;10.850;2023-02-28T12:32:32;2.77;;;1.97;;
44862;SDS011;30597;49.628;10.850;2023-02-28T12:35:02;4.00;;;2.53;;
44862;SDS011;30597;49.628;10.850;2023-02-28T12:37:37;3.17;;;2.57;;
44862;SDS011;30597;49.628;10.850;2023-02-28T12:40:15;3.03;;;2.20;;
44862;SDS011;30597;49.628;10.850;2023-02-28T12:42:49;2.57;;;2.33;;
44862;SDS011;30597;49.628;10.850;2023-02-28T12:45:20;3.40;;;3.10;;
44862;SDS011;30597;49.628;10.850;2023-02-28T12:47:46;3.97;;;2.00;;
44862;SDS011;30597;49.628;10.850;2023-02-28T12:50:29;2.20;;;1.90;;
44862;SDS011;30597;49.628;10.850;2023-02-28T12:52:59;2.90;;;2.23;;
44862;SDS011;30597;49.628;10.850;2023-02-28T12:55:42;2.90;;;1.87;;
44862;SDS011;30597;49.628;10.850;2023-02-28T12:58:32;2.40;;;2.20;;
44862;SDS011;30597;49.628;10.850;2023-02-28T13:01:23;2.77;;;2.10;;
44862;SDS011;30597;49.628;10.850;2023-02-28T13:06:53;2.47;;;2.00;;
44862;SDS011;30597;49.628;10.850;2023-02-28T13:09:29;2.30;;;1.80;;
44862;SDS011;30597;49.628;10.850;2023-02-28T13:11:55;4.83;;;2.70;;
44862;SDS011;30597;49.628;10.850;2023-02-28T13:14:26;3.07;;;2.10;;
44862;SDS011;30597;49.628;10.850;2023-02-28T13:25:00;3.00;;;2.20;;
44862;SDS011;30597;49.628;10.850;2023-02-28T13:27:39;3.10;;;2.27;;
44862;SDS011;30597;49.628;10.850;2023-02-28T13:33:27;3.00;;;2.70;;
44862;SDS011;30597;49.628;10.850;2023-02-28T13:38:36;3.43;;;2.63;;
44862;SDS011;30597;49.628;10.850;2023-02-28T13:44:15;2.50;;;2.30;;
44862;SDS011;30597;49.628;10.850;2023-02-28T13:51:48;3.30;;;2.90;;
44862;SDS011;30597;49.628;10.850;2023-02-28T13:57:02;3.67;;;3.27;;
44862;SDS011;30597;49.628;10.850;2023-02-28T14:00:02;4.40;;;4.00;;
44862;SDS011;30597;49.628;10.850;2023-02-28T14:02:59;3.67;;;3.27;;
44862;SDS011;30597;49.628;10.850;2023-02-28T14:05:26;7.20;;;4.30;;
44862;SDS011;30597;49.628;10.850;2023-02-28T14:07:56;4.00;;;3.60;;
44862;SDS011;30597;49.628;10.850;2023-02-28T14:10:27;4.50;;;3.90;;
44862;SDS011;30597;49.628;10.850;2023-02-28T14:12:59;5.70;;;4.00;;
44862;SDS011;30597;49.628;10.850;2023-02-28T14:15:42;4.40;;;3.97;;
44862;SDS011;30597;49.628;10.850;2023-02-28T14:18:22;4.07;;;3.77;;
44862;SDS011;30597;49.628;10.850;2023-02-28T14:21:13;6.27;;;4.40;;
44862;SDS011;30597;49.628;10.850;2023-02-28T14:23:55;4.83;;;4.33;;
44862;SDS011;30597;49.628;10.850;2023-02-28T14:26:32;5.27;;;4.77;;
44862;SDS011;30597;49.628;10.850;2023-02-28T14:29:23;5.10;;;4.60;;
44862;SDS011;30597;49.628;10.850;2023-02-28T14:34:55;5.87;;;5.30;;
44862;SDS011;30597;49.628;10.850;2023-02-28T14:37:42;6.80;;;5.97;;
44862;SDS011;30597;49.628;10.850;2023-02-28T14:40:12;5.50;;;5.00;;
44862;SDS011;30597;49.628;10.850;2023-02-28T14:42:55;5.67;;;5.07;;
44862;SDS011;30597;49.628;10.850;2023-02-28T14:45:22;5.63;;;5.13;;
44862;SDS011;30597;49.628;10.850;2023-02-28T14:47:51;6.80;;;5.30;;
44862;SDS011;30597;49.628;10.850;2023-02-28T14:50:21;6.67;;;4.93;;
44862;SDS011;30597;49.628;10.850;2023-02-28T14:52:50;6.00;;;5.20;;
44862;SDS011;30597;49.628;10.850;2023-02-28T14:55:23;8.23;;;5.07;;
44862;SDS011;30597;49.628;10.850;2023-02-28T14:58:18;5.87;;;5.37;;
44862;SDS011;30597;49.628;10.850;2023-02-28T15:00:56;6.60;;;5.30;;
44862;SDS011;30597;49.628;10.850;2023-02-28T15:03:24;6.43;;;5.83;;
44862;SDS011;30597;49.628;10.850;2023-02-28T15:06:04;6.53;;;5.93;;
44862;SDS011;30597;49.628;10.850;2023-02-28T15:08:42;8.50;;;6.47;;
44862;SDS011;30597;49.628;10.850;2023-02-28T15:11:11;6.73;;;6.03;;
44862;SDS011;30597;49.628;10.850;2023-02-28T15:13:45;7.30;;;6.20;;
44862;SDS011;30597;49.628;10.850;2023-02-28T15:16:15;7.00;;;5.77;;
44862;SDS011;30597;49.628;10.850;2023-02-28T15:18:51;7.13;;;6.43;;
44862;SDS011;30597;49.628;10.850;2023-02-28T15:24:30;6.10;;;5.50;;
44862;SDS011;30597;49.628;10.850;2023-02-28T15:26:41;8.23;;;7.03;;
44862;SDS011;30597;49.628;10.850;2023-02-28T15:31:44;7.03;;;6.30;;
44862;SDS011;30597;49.628;10.850;2023-02-28T15:34:34;7.00;;;6.30;;
44862;SDS011;30597;49.628;10.850;2023-02-28T15:39:53;7.03;;;6.43;;
44862;SDS011;30597;49.628;10.850;2023-02-28T15:42:21;7.13;;;6.40;;
44862;SDS011;30597;49.628;10.850;2023-02-28T15:44:48;7.40;;;6.00;;
44862;SDS011;30597;49.628;10.850;2023-02-28T15:47:20;7.50;;;6.80;;
44862;SDS011;30597;49.628;10.850;2023-02-28T15:49:49;8.67;;;7.77;;
44862;SDS011;30597;49.628;10.850;2023-02-28T15:52:19;7.80;;;7.00;;
44862;SDS011;30597;49.628;10.850;2023-02-28T15:55:08;8.50;;;7.20;;
44862;SDS011;30597;49.628;10.850;2023-02-28T15:57:45;7.43;;;6.63;;
44862;SDS011;30597;49.628;10.850;2023-02-28T16:00:15;10.87;;;7.10;;
44862;SDS011;30597;49.628;10.850;2023-02-28T16:02:44;9.47;;;7.20;;
44862;SDS011;30597;49.628;10.850;2023-02-28T16:07:36;7.83;;;7.10;;
44862;SDS011;30597;49.628;10.850;2023-02-28T16:10:06;7.03;;;6.33;;
44862;SDS011;30597;49.628;10.850;2023-02-28T16:12:34;7.20;;;6.50;;
44862;SDS011;30597;49.628;10.850;2023-02-28T16:15:03;7.70;;;6.90;;
44862;SDS011;30597;49.628;10.850;2023-02-28T16:17:33;9.20;;;7.00;;
44862;SDS011;30597;49.628;10.850;2023-02-28T16:20:05;7.80;;;7.03;;
44862;SDS011;30597;49.628;10.850;2023-02-28T16:22:38;7.83;;;7.10;;
44862;SDS011;30597;49.628;10.850;2023-02-28T16:25:04;7.30;;;6.60;;
44862;SDS011;30597;49.628;10.850;2023-02-28T16:27:33;7.80;;;7.10;;
44862;SDS011;30597;49.628;10.850;2023-02-28T16:30:03;8.43;;;6.60;;
44862;SDS011;30597;49.628;10.850;2023-02-28T16:32:30;10.10;;;7.63;;
44862;SDS011;30597;49.628;10.850;2023-02-28T16:34:59;7.80;;;7.03;;
44862;SDS011;30597;49.628;10.850;2023-02-28T16:37:24;8.83;;;8.03;;
44862;SDS011;30597;49.628;10.850;2023-02-28T16:39:51;8.33;;;7.53;;
44862;SDS011;30597;49.628;10.850;2023-02-28T16:42:21;8.93;;;8.00;;
44862;SDS011;30597;49.628;10.850;2023-02-28T16:44:53;7.60;;;6.90;;